Here is the Quick Look data you requested

The Data originates at the National Weather Service, and is made available here by the UAlbany Department of Atmospheric and Environmental Sciences

Surface Observations

KCVG 142352Z 19005KT 10SM FEW200 BKN250 30/18 A3001 RMK AO2 SLP149 T03000178
 10344 20300 56017=
KCVG 150152Z 00000KT 10SM FEW200 OVC250 28/18 A3005 RMK AO2 SLP163 T02830178=
KCVG 150252Z 28004KT 10SM OVC250 26/18 A3005 RMK AO2 SLP164 T02610183 51015=
KCVG 150352Z 00000KT 10SM BKN200 OVC250 25/19 A3005 RMK AO2 SLP162 T02500189=
KCVG 150452Z 23003KT 10SM OVC200 24/19 A3005 RMK AO2 SLP163 T02440194 403440189=
KCVG 150552Z 00000KT 9SM OVC200 23/19 A3005 RMK AO2 SLP163 T02330194 10300
 20217 56000=
KCVG 150652Z 17004KT 10SM BKN200 24/19 A3002 RMK AO2 SLP154 T02390189=
KCVG 150752Z 23003KT 10SM OVC180 23/19 A3003 RMK AO2 SLP156 T02330189=
KCVG 150852Z 00000KT 9SM BKN150 OVC250 23/19 A3003 RMK AO2 SLP157 T02280194
 55007=
KCVG 150952Z 00000KT 9SM BKN150 OVC250 23/19 A3004 RMK AO2 SLP159 T02330194=
KCVG 151052Z 00000KT 9SM BKN130 BKN150 OVC200 24/20 A3004 RMK AO2 SLP161
 T02390200=
KCVG 151152Z 00000KT 8SM BKN110 OVC150 24/20 A3006 RMK AO2 SLP166 T02440200
 10244 20217 53008=
KCVG 151252Z 00000KT 8SM BKN075 OVC120 24/21 A3006 RMK AO2 RAB35E49 SLP168
 P0000 T02440211=
KCVG 151352Z 24003KT 8SM BKN150 OVC200 26/21 A3005 RMK AO2 SLP165 T02610211=
KCVG 151452Z 19003KT 8SM R18C/3000VP6000FT BKN150 OVC200 27/21 A3003 RMK AO2
 SLP159 60000 T02720211 58007=
KCVG 151552Z 00000KT 8SM SCT130 BKN150 OVC200 28/21 A3003 RMK AO2 SLP157
 T02780211=
KCVG 151652Z 21007KT 8SM BKN130 OVC150 29/21 A3004 RMK AO2 SLP160 T02890211=
KCVG 151752Z 19009KT 9SM SCT120 BKN150 OVC200 30/22 A3005 RMK AO2 SLP163 60000
 T03000217 10300 20233 53004=
KCVG 151852Z 18008KT 160V230 9SM SCT120 BKN150 OVC200 30/22 A3003 RMK AO2
 SLP159 T03000217=
KCVG 151952Z 23010KT 8SM FEW060 OVC110 28/22 A3002 RMK AO2 SLP154 T02830217=
KCVG 152052Z VRB06KT 7SM OVC110 29/23 A3000 RMK AO2 SLP147 T02890233 58015=
KCVG 152152Z 25004KT 8SM BKN110 OVC130 28/23 A3001 RMK AO2 SLP149 T02830228=
KCVG 152252Z 23007KT 9SM FEW060 BKN100 OVC120 27/23 A3000 RMK AO2 SLP148
 T02720228=
KCVG 152352Z 22004KT 10SM OVC100 27/23 A2999 RMK AO2 SLP143 T02670228 10311
 20267 58004=
KCVG 160052Z 23003KT 10SM BKN110 BKN140 26/21 A2999 RMK AO2 SLP144 T02610211=
KCVG 160152Z 20004KT 10SM FEW110 BKN140 24/21 A2998 RMK AO2 SLP142 T02440206=
KCVG 160252Z 00000KT 10SM SCT140 24/21 A3001 RMK AO2 SLP151 T02440211 53008=
KCVG 160352Z 16003KT 10SM FEW100 BKN140 24/21 A3002 RMK AO2 SLP153 T02390211=
KCVG 160452Z 19004KT 10SM OVC100 24/22 A3002 RMK AO2 SLP154 T02390217 403110217=
KCVG 160552Z 17004KT 10SM FEW016 OVC100 24/22 A3002 RMK AO2 SLP152 T02390217
 10267 20228 50001=
KCVG 160652Z 21005KT 10SM OVC090 24/22 A3000 RMK AO2 SLP149 T02440222=
KCVG 160752Z 21004KT 10SM BKN065 OVC090 24/22 A3000 RMK AO2 SLP146 T02390222=
KCVG 160852Z 19003KT 9SM SCT042 OVC060 24/22 A2999 RMK AO2 CIG 042 36R SLP145
 T02390222 56007=
KCVG 160952Z 15003KT 8SM BKN080 23/22 A2999 RMK AO2 SLP143 T02280217=
KCVG 161052Z VRB04KT 10SM BKN012 BKN180 22/22 A2999 RMK AO2 SLP146 T02220217=
KCVG 161111Z 16006KT 10SM SCT011 SCT016 SCT180 22/22 A2999 RMK AO2 T02220217=
KCVG 161152Z 16006KT 10SM SCT100 SCT180 23/22 A2999 RMK AO2 SLP146 T02330222
 10244 20217 51002=
KCVG 161209Z 19006KT 8SM FEW007 SCT100 SCT180 24/22 A2999 RMK AO2 T02390222=